Terminal Aerodrome Forecast
Issued by NWS Charleston, WV

Current Version | Previous Version | Graphics & Text | Print | Product List | Glossary On
Versions: 1 2 3 4 5 6 7 8 9 10 11 12 13 14 15 16 17 18 19 20 21 22 23
000
FTUS41 KRLX 241120
TAFHTS
TAF
KHTS 241120Z 2412/2512 22004KT P6SM SCT200
     FM241500 25005KT P6SM SCT050
     FM241800 26008KT P6SM BKN050
     FM242300 31005KT P6SM SCT250
     FM250600 01003KT P6SM VCFG SCT010=

USA.gov is the U.S. government's official web portal to all federal, state and local government web resources and services.